Rechercher aéroport 
image banner adimage banner adimage banner ad
image banner ad

33CN - Platform Hillhouse

Situé à Carpinteria, United States

ICAO - 33CN, IATA -

Données fournies par Airmate  

Information générale

Coordonnées: N34°19'52" W119°36'16"
Élévation : 98 feet MSL.
Variation magnétique : 14° East
Voir autres Aéroports à California

Données opérationnelles

Special qualification required
Heure actuelle UTC:
Heure actuelle locale:
Météo à : KSBA - Santa Barbara Muni ( 24 km )
METAR: KSBA 212353Z 10SM FEW002 19/16 A3004 RMK AO2 SLP170 FG BNK ALNG SHRLN E-W T01890156 10239 20189 56008 $
TAF: KSBA 212336Z 2200/2224 23008KT P6SM SKC FM220300 VRB03KT P6SM SKC FM220600 VRB03KT 6SM BR OVC005 FM221000 VRB03KT 1SM BR OVC003 FM221500 VRB03KT 3SM BR OVC005 FM221730 18005KT P6SM SCT005
Voir NOTAMs / SUP AIP / TFR affectant cet aéroport [VIEW]
Fréquences de communication: [VIEW]

Pistes:

Coordonnées de l'aéroport

Adresse: Carpinteria United States

Vue satellite de 33CN